sensor_id;sensor_type;location;lat;lon;timestamp;P1;durP1;ratioP1;P2;durP2;ratioP2
450;SDS011;212;48.748;9.174;2022-08-01T00:02:12;2.80;;;2.60;;
450;SDS011;212;48.748;9.174;2022-08-01T00:04:39;2.53;;;2.33;;
450;SDS011;212;48.748;9.174;2022-08-01T00:07:06;4.20;;;2.67;;
450;SDS011;212;48.748;9.174;2022-08-01T00:09:34;2.50;;;2.30;;
450;SDS011;212;48.748;9.174;2022-08-01T00:12:00;3.70;;;2.60;;
450;SDS011;212;48.748;9.174;2022-08-01T00:14:27;2.60;;;2.40;;
450;SDS011;212;48.748;9.174;2022-08-01T00:16:54;3.53;;;2.47;;
450;SDS011;212;48.748;9.174;2022-08-01T00:19:20;4.47;;;2.40;;
450;SDS011;212;48.748;9.174;2022-08-01T00:21:47;2.70;;;2.50;;
450;SDS011;212;48.748;9.174;2022-08-01T00:24:14;2.80;;;2.60;;
450;SDS011;212;48.748;9.174;2022-08-01T00:26:42;2.80;;;2.67;;
450;SDS011;212;48.748;9.174;2022-08-01T00:29:08;2.93;;;2.63;;
450;SDS011;212;48.748;9.174;2022-08-01T00:31:35;3.30;;;2.67;;
450;SDS011;212;48.748;9.174;2022-08-01T00:34:01;2.70;;;2.47;;
450;SDS011;212;48.748;9.174;2022-08-01T00:36:28;2.80;;;2.60;;
450;SDS011;212;48.748;9.174;2022-08-01T00:38:55;3.33;;;3.13;;
450;SDS011;212;48.748;9.174;2022-08-01T00:41:21;2.93;;;2.70;;
450;SDS011;212;48.748;9.174;2022-08-01T00:43:49;2.63;;;2.30;;
450;SDS011;212;48.748;9.174;2022-08-01T00:46:16;3.07;;;2.30;;
450;SDS011;212;48.748;9.174;2022-08-01T00:48:43;2.57;;;2.37;;
450;SDS011;212;48.748;9.174;2022-08-01T00:51:09;2.00;;;1.90;;
450;SDS011;212;48.748;9.174;2022-08-01T00:53:36;2.80;;;2.60;;
450;SDS011;212;48.748;9.174;2022-08-01T00:56:03;3.37;;;3.03;;
450;SDS011;212;48.748;9.174;2022-08-01T00:58:30;2.83;;;2.63;;
450;SDS011;212;48.748;9.174;2022-08-01T01:00:59;3.53;;;2.77;;
450;SDS011;212;48.748;9.174;2022-08-01T01:03:26;3.10;;;2.90;;
450;SDS011;212;48.748;9.174;2022-08-01T01:05:55;2.90;;;2.70;;
450;SDS011;212;48.748;9.174;2022-08-01T01:08:30;3.77;;;3.10;;
450;SDS011;212;48.748;9.174;2022-08-01T01:11:03;2.77;;;2.60;;
450;SDS011;212;48.748;9.174;2022-08-01T01:13:35;4.80;;;2.97;;
450;SDS011;212;48.748;9.174;2022-08-01T01:16:10;2.60;;;2.20;;
450;SDS011;212;48.748;9.174;2022-08-01T01:18:40;3.40;;;2.60;;
450;SDS011;212;48.748;9.174;2022-08-01T01:21:14;3.07;;;2.67;;
450;SDS011;212;48.748;9.174;2022-08-01T01:24:03;7.73;;;3.47;;
450;SDS011;212;48.748;9.174;2022-08-01T01:26:43;2.83;;;2.63;;
450;SDS011;212;48.748;9.174;2022-08-01T01:29:16;3.13;;;2.93;;
450;SDS011;212;48.748;9.174;2022-08-01T01:31:47;3.03;;;2.60;;
450;SDS011;212;48.748;9.174;2022-08-01T01:34:18;3.23;;;3.03;;
450;SDS011;212;48.748;9.174;2022-08-01T01:36:47;4.50;;;2.90;;
450;SDS011;212;48.748;9.174;2022-08-01T01:39:15;3.60;;;3.40;;
450;SDS011;212;48.748;9.174;2022-08-01T01:41:43;6.20;;;3.10;;
450;SDS011;212;48.748;9.174;2022-08-01T01:44:11;3.20;;;3.00;;
450;SDS011;212;48.748;9.174;2022-08-01T01:46:40;3.00;;;2.83;;
450;SDS011;212;48.748;9.174;2022-08-01T01:49:08;3.17;;;2.97;;
450;SDS011;212;48.748;9.174;2022-08-01T01:51:36;3.63;;;3.03;;
450;SDS011;212;48.748;9.174;2022-08-01T01:54:04;3.57;;;3.37;;
450;SDS011;212;48.748;9.174;2022-08-01T01:56:32;3.00;;;2.80;;
450;SDS011;212;48.748;9.174;2022-08-01T01:59:01;4.63;;;2.67;;
450;SDS011;212;48.748;9.174;2022-08-01T02:01:31;3.80;;;2.73;;
450;SDS011;212;48.748;9.174;2022-08-01T02:04:00;3.33;;;3.13;;
450;SDS011;212;48.748;9.174;2022-08-01T02:06:28;4.60;;;2.77;;
450;SDS011;212;48.748;9.174;2022-08-01T02:08:57;4.37;;;3.13;;
450;SDS011;212;48.748;9.174;2022-08-01T02:11:26;3.13;;;2.90;;
450;SDS011;212;48.748;9.174;2022-08-01T02:13:55;3.20;;;3.00;;
450;SDS011;212;48.748;9.174;2022-08-01T02:16:25;3.77;;;3.57;;
450;SDS011;212;48.748;9.174;2022-08-01T02:18:53;3.50;;;3.30;;
450;SDS011;212;48.748;9.174;2022-08-01T02:21:25;2.83;;;2.63;;
450;SDS011;212;48.748;9.174;2022-08-01T02:23:53;3.33;;;3.17;;
450;SDS011;212;48.748;9.174;2022-08-01T02:26:26;3.77;;;3.50;;
450;SDS011;212;48.748;9.174;2022-08-01T02:28:56;3.40;;;2.97;;
450;SDS011;212;48.748;9.174;2022-08-01T02:31:25;3.50;;;3.10;;
450;SDS011;212;48.748;9.174;2022-08-01T02:33:58;3.40;;;3.20;;
450;SDS011;212;48.748;9.174;2022-08-01T02:36:29;3.30;;;3.10;;
450;SDS011;212;48.748;9.174;2022-08-01T02:38:59;4.70;;;3.67;;
450;SDS011;212;48.748;9.174;2022-08-01T02:41:28;3.47;;;3.27;;
450;SDS011;212;48.748;9.174;2022-08-01T02:43:58;4.80;;;3.10;;
450;SDS011;212;48.748;9.174;2022-08-01T02:46:31;3.03;;;2.67;;
450;SDS011;212;48.748;9.174;2022-08-01T02:49:00;4.43;;;4.13;;
450;SDS011;212;48.748;9.174;2022-08-01T02:51:32;4.30;;;3.10;;
450;SDS011;212;48.748;9.174;2022-08-01T02:54:01;3.20;;;3.00;;
450;SDS011;212;48.748;9.174;2022-08-01T02:56:31;3.27;;;3.07;;
450;SDS011;212;48.748;9.174;2022-08-01T02:59:02;3.30;;;3.10;;
450;SDS011;212;48.748;9.174;2022-08-01T03:01:31;3.80;;;3.43;;
450;SDS011;212;48.748;9.174;2022-08-01T03:03:59;6.13;;;3.03;;
450;SDS011;212;48.748;9.174;2022-08-01T03:06:27;3.30;;;3.10;;
450;SDS011;212;48.748;9.174;2022-08-01T03:08:56;2.93;;;2.77;;
450;SDS011;212;48.748;9.174;2022-08-01T03:11:25;4.40;;;3.23;;
450;SDS011;212;48.748;9.174;2022-08-01T03:13:53;3.50;;;3.30;;
450;SDS011;212;48.748;9.174;2022-08-01T03:16:22;3.20;;;3.00;;
450;SDS011;212;48.748;9.174;2022-08-01T03:18:51;3.10;;;2.97;;
450;SDS011;212;48.748;9.174;2022-08-01T03:21:20;3.33;;;3.13;;
450;SDS011;212;48.748;9.174;2022-08-01T03:23:49;3.93;;;3.23;;
450;SDS011;212;48.748;9.174;2022-08-01T03:26:23;4.73;;;2.90;;
450;SDS011;212;48.748;9.174;2022-08-01T03:28:51;3.10;;;2.90;;
450;SDS011;212;48.748;9.174;2022-08-01T03:31:21;3.70;;;3.50;;
450;SDS011;212;48.748;9.174;2022-08-01T03:33:50;3.10;;;2.83;;
450;SDS011;212;48.748;9.174;2022-08-01T03:36:16;3.17;;;2.97;;
450;SDS011;212;48.748;9.174;2022-08-01T03:38:49;3.23;;;3.03;;
450;SDS011;212;48.748;9.174;2022-08-01T03:41:18;3.13;;;2.93;;
450;SDS011;212;48.748;9.174;2022-08-01T03:43:49;4.97;;;3.20;;
450;SDS011;212;48.748;9.174;2022-08-01T03:46:22;3.90;;;3.20;;
450;SDS011;212;48.748;9.174;2022-08-01T03:48:53;4.83;;;3.23;;
450;SDS011;212;48.748;9.174;2022-08-01T03:51:23;3.13;;;3.00;;
450;SDS011;212;48.748;9.174;2022-08-01T03:53:51;3.50;;;3.30;;
450;SDS011;212;48.748;9.174;2022-08-01T03:56:19;3.00;;;2.80;;
450;SDS011;212;48.748;9.174;2022-08-01T03:58:49;3.63;;;3.27;;
450;SDS011;212;48.748;9.174;2022-08-01T04:01:17;3.33;;;3.20;;
450;SDS011;212;48.748;9.174;2022-08-01T04:03:44;3.43;;;3.23;;
450;SDS011;212;48.748;9.174;2022-08-01T04:06:11;3.10;;;2.90;;
450;SDS011;212;48.748;9.174;2022-08-01T04:08:39;3.10;;;2.90;;
450;SDS011;212;48.748;9.174;2022-08-01T04:11:07;4.07;;;3.00;;
450;SDS011;212;48.748;9.174;2022-08-01T04:13:35;3.50;;;3.30;;
450;SDS011;212;48.748;9.174;2022-08-01T04:16:03;3.87;;;3.60;;
450;SDS011;212;48.748;9.174;2022-08-01T04:18:30;2.40;;;2.20;;
450;SDS011;212;48.748;9.174;2022-08-01T04:20:57;3.03;;;2.83;;
450;SDS011;212;48.748;9.174;2022-08-01T04:23:24;3.30;;;3.13;;
450;SDS011;212;48.748;9.174;2022-08-01T04:25:53;2.97;;;2.77;;
450;SDS011;212;48.748;9.174;2022-08-01T04:28:21;3.20;;;3.00;;
450;SDS011;212;48.748;9.174;2022-08-01T04:30:50;2.90;;;2.70;;
450;SDS011;212;48.748;9.174;2022-08-01T04:33:21;2.77;;;2.57;;
450;SDS011;212;48.748;9.174;2022-08-01T04:35:50;2.60;;;2.40;;
450;SDS011;212;48.748;9.174;2022-08-01T04:38:19;3.27;;;2.40;;
450;SDS011;212;48.748;9.174;2022-08-01T04:40:48;4.43;;;2.87;;
450;SDS011;212;48.748;9.174;2022-08-01T04:43:16;4.13;;;2.30;;
450;SDS011;212;48.748;9.174;2022-08-01T04:45:43;3.20;;;2.80;;
450;SDS011;212;48.748;9.174;2022-08-01T04:48:12;5.90;;;3.10;;
450;SDS011;212;48.748;9.174;2022-08-01T04:50:42;2.90;;;2.60;;
450;SDS011;212;48.748;9.174;2022-08-01T04:53:12;2.97;;;2.77;;
450;SDS011;212;48.748;9.174;2022-08-01T04:55:39;2.90;;;2.70;;
450;SDS011;212;48.748;9.174;2022-08-01T04:58:06;2.90;;;2.63;;
450;SDS011;212;48.748;9.174;2022-08-01T05:00:33;3.23;;;2.40;;
450;SDS011;212;48.748;9.174;2022-08-01T05:03:00;2.73;;;2.53;;
450;SDS011;212;48.748;9.174;2022-08-01T05:05:27;3.90;;;2.40;;
450;SDS011;212;48.748;9.174;2022-08-01T05:07:56;4.00;;;2.50;;
450;SDS011;212;48.748;9.174;2022-08-01T05:10:23;4.63;;;2.87;;
450;SDS011;212;48.748;9.174;2022-08-01T05:12:51;2.20;;;2.00;;
450;SDS011;212;48.748;9.174;2022-08-01T05:15:17;3.23;;;2.80;;
450;SDS011;212;48.748;9.174;2022-08-01T05:17:44;2.80;;;2.20;;
450;SDS011;212;48.748;9.174;2022-08-01T05:20:11;2.33;;;2.10;;
450;SDS011;212;48.748;9.174;2022-08-01T05:22:38;2.23;;;2.03;;
450;SDS011;212;48.748;9.174;2022-08-01T05:25:07;5.53;;;2.17;;
450;SDS011;212;48.748;9.174;2022-08-01T05:27:34;3.07;;;2.20;;
450;SDS011;212;48.748;9.174;2022-08-01T05:30:04;2.20;;;2.00;;
450;SDS011;212;48.748;9.174;2022-08-01T05:32:32;2.20;;;2.00;;
450;SDS011;212;48.748;9.174;2022-08-01T05:34:59;2.57;;;2.00;;
450;SDS011;212;48.748;9.174;2022-08-01T05:37:26;3.53;;;2.00;;
450;SDS011;212;48.748;9.174;2022-08-01T05:39:53;2.67;;;2.47;;
450;SDS011;212;48.748;9.174;2022-08-01T05:42:21;2.53;;;2.33;;
450;SDS011;212;48.748;9.174;2022-08-01T05:44:48;2.80;;;2.00;;
450;SDS011;212;48.748;9.174;2022-08-01T05:47:15;2.37;;;2.17;;
450;SDS011;212;48.748;9.174;2022-08-01T05:49:42;3.00;;;2.70;;
450;SDS011;212;48.748;9.174;2022-08-01T05:52:09;2.50;;;2.33;;
450;SDS011;212;48.748;9.174;2022-08-01T05:54:36;2.80;;;2.50;;
450;SDS011;212;48.748;9.174;2022-08-01T05:57:03;3.37;;;2.50;;
450;SDS011;212;48.748;9.174;2022-08-01T05:59:31;2.00;;;1.90;;
450;SDS011;212;48.748;9.174;2022-08-01T06:01:58;5.67;;;2.27;;
450;SDS011;212;48.748;9.174;2022-08-01T06:04:25;3.80;;;2.20;;
450;SDS011;212;48.748;9.174;2022-08-01T06:06:51;2.73;;;1.63;;
450;SDS011;212;48.748;9.174;2022-08-01T06:09:18;4.60;;;1.63;;
450;SDS011;212;48.748;9.174;2022-08-01T06:11:45;1.87;;;1.80;;
450;SDS011;212;48.748;9.174;2022-08-01T06:14:11;1.90;;;1.80;;
450;SDS011;212;48.748;9.174;2022-08-01T06:16:39;2.70;;;2.20;;
450;SDS011;212;48.748;9.174;2022-08-01T06:19:06;2.43;;;2.23;;
450;SDS011;212;48.748;9.174;2022-08-01T06:21:33;2.17;;;2.00;;
450;SDS011;212;48.748;9.174;2022-08-01T06:23:59;3.80;;;2.50;;
450;SDS011;212;48.748;9.174;2022-08-01T06:26:26;2.03;;;1.83;;
450;SDS011;212;48.748;9.174;2022-08-01T06:28:53;1.40;;;1.30;;
450;SDS011;212;48.748;9.174;2022-08-01T06:31:19;1.63;;;1.53;;
450;SDS011;212;48.748;9.174;2022-08-01T06:33:47;1.63;;;1.53;;
450;SDS011;212;48.748;9.174;2022-08-01T06:36:14;1.50;;;1.40;;
450;SDS011;212;48.748;9.174;2022-08-01T06:38:40;3.00;;;1.47;;
450;SDS011;212;48.748;9.174;2022-08-01T06:41:07;2.23;;;2.03;;
450;SDS011;212;48.748;9.174;2022-08-01T06:43:34;1.50;;;1.20;;
450;SDS011;212;48.748;9.174;2022-08-01T06:46:00;2.50;;;1.90;;
450;SDS011;212;48.748;9.174;2022-08-01T06:48:27;2.50;;;1.90;;
450;SDS011;212;48.748;9.174;2022-08-01T06:50:55;3.17;;;1.27;;
450;SDS011;212;48.748;9.174;2022-08-01T06:53:36;1.50;;;1.23;;
450;SDS011;212;48.748;9.174;2022-08-01T06:56:04;2.90;;;1.30;;
450;SDS011;212;48.748;9.174;2022-08-01T06:58:31;1.23;;;1.20;;
450;SDS011;212;48.748;9.174;2022-08-01T07:00:59;1.97;;;1.87;;
450;SDS011;212;48.748;9.174;2022-08-01T07:03:26;1.70;;;1.47;;
450;SDS011;212;48.748;9.174;2022-08-01T07:05:53;1.90;;;1.30;;
450;SDS011;212;48.748;9.174;2022-08-01T07:08:21;2.43;;;1.80;;
450;SDS011;212;48.748;9.174;2022-08-01T07:10:48;1.20;;;1.10;;
450;SDS011;212;48.748;9.174;2022-08-01T07:13:15;1.30;;;1.30;;
450;SDS011;212;48.748;9.174;2022-08-01T07:15:48;2.13;;;1.60;;
450;SDS011;212;48.748;9.174;2022-08-01T07:18:14;3.30;;;3.13;;
450;SDS011;212;48.748;9.174;2022-08-01T07:20:41;1.50;;;1.40;;
450;SDS011;212;48.748;9.174;2022-08-01T07:23:08;1.57;;;1.47;;
450;SDS011;212;48.748;9.174;2022-08-01T07:25:36;2.73;;;1.80;;
450;SDS011;212;48.748;9.174;2022-08-01T07:28:02;1.90;;;1.87;;
450;SDS011;212;48.748;9.174;2022-08-01T07:30:29;1.60;;;1.50;;
450;SDS011;212;48.748;9.174;2022-08-01T07:32:56;2.20;;;1.67;;
450;SDS011;212;48.748;9.174;2022-08-01T07:35:23;1.87;;;1.77;;
450;SDS011;212;48.748;9.174;2022-08-01T07:37:50;1.57;;;1.57;;
450;SDS011;212;48.748;9.174;2022-08-01T07:40:18;2.00;;;1.70;;
450;SDS011;212;48.748;9.174;2022-08-01T07:42:47;2.33;;;2.13;;
450;SDS011;212;48.748;9.174;2022-08-01T07:45:13;2.00;;;1.57;;
450;SDS011;212;48.748;9.174;2022-08-01T07:47:40;1.93;;;1.80;;
450;SDS011;212;48.748;9.174;2022-08-01T07:50:07;3.67;;;2.00;;
450;SDS011;212;48.748;9.174;2022-08-01T07:52:34;5.60;;;2.20;;
450;SDS011;212;48.748;9.174;2022-08-01T07:55:01;1.83;;;1.70;;
450;SDS011;212;48.748;9.174;2022-08-01T07:57:28;6.57;;;4.23;;
450;SDS011;212;48.748;9.174;2022-08-01T07:59:56;1.70;;;1.63;;
450;SDS011;212;48.748;9.174;2022-08-01T08:02:22;1.90;;;1.90;;
450;SDS011;212;48.748;9.174;2022-08-01T08:04:49;2.30;;;2.10;;
450;SDS011;212;48.748;9.174;2022-08-01T08:07:16;2.40;;;2.20;;
450;SDS011;212;48.748;9.174;2022-08-01T08:09:42;2.33;;;2.13;;
450;SDS011;212;48.748;9.174;2022-08-01T08:12:09;2.63;;;2.43;;
450;SDS011;212;48.748;9.174;2022-08-01T08:14:37;2.40;;;2.07;;
450;SDS011;212;48.748;9.174;2022-08-01T08:17:05;3.00;;;2.13;;
450;SDS011;212;48.748;9.174;2022-08-01T08:19:32;2.40;;;2.20;;
450;SDS011;212;48.748;9.174;2022-08-01T08:22:02;2.50;;;2.33;;
450;SDS011;212;48.748;9.174;2022-08-01T08:24:28;2.60;;;2.43;;
450;SDS011;212;48.748;9.174;2022-08-01T08:26:56;2.70;;;2.50;;
450;SDS011;212;48.748;9.174;2022-08-01T08:29:23;2.77;;;2.57;;
450;SDS011;212;48.748;9.174;2022-08-01T08:31:51;3.80;;;3.20;;
450;SDS011;212;48.748;9.174;2022-08-01T08:34:20;2.93;;;2.73;;
450;SDS011;212;48.748;9.174;2022-08-01T08:36:47;3.93;;;3.10;;
450;SDS011;212;48.748;9.174;2022-08-01T08:39:14;3.43;;;2.30;;
450;SDS011;212;48.748;9.174;2022-08-01T08:41:42;4.67;;;2.77;;
450;SDS011;212;48.748;9.174;2022-08-01T08:44:09;3.30;;;2.80;;
450;SDS011;212;48.748;9.174;2022-08-01T08:46:39;3.27;;;3.07;;
450;SDS011;212;48.748;9.174;2022-08-01T08:49:08;3.23;;;2.87;;
450;SDS011;212;48.748;9.174;2022-08-01T08:51:39;3.10;;;2.90;;
450;SDS011;212;48.748;9.174;2022-08-01T08:54:07;3.23;;;2.90;;
450;SDS011;212;48.748;9.174;2022-08-01T08:56:36;2.77;;;2.57;;
450;SDS011;212;48.748;9.174;2022-08-01T08:59:04;2.80;;;2.60;;
450;SDS011;212;48.748;9.174;2022-08-01T09:01:31;3.10;;;2.70;;
450;SDS011;212;48.748;9.174;2022-08-01T09:04:00;2.63;;;2.43;;
450;SDS011;212;48.748;9.174;2022-08-01T09:06:28;2.67;;;2.47;;
450;SDS011;212;48.748;9.174;2022-08-01T09:08:56;2.80;;;2.60;;
450;SDS011;212;48.748;9.174;2022-08-01T09:11:23;3.03;;;2.83;;
450;SDS011;212;48.748;9.174;2022-08-01T09:14:03;2.70;;;2.50;;
450;SDS011;212;48.748;9.174;2022-08-01T09:16:32;2.60;;;2.30;;
450;SDS011;212;48.748;9.174;2022-08-01T09:19:09;2.90;;;2.70;;
450;SDS011;212;48.748;9.174;2022-08-01T09:21:38;3.17;;;2.97;;
450;SDS011;212;48.748;9.174;2022-08-01T09:24:14;4.30;;;4.00;;
450;SDS011;212;48.748;9.174;2022-08-01T09:26:42;7.27;;;3.00;;
450;SDS011;212;48.748;9.174;2022-08-01T09:29:16;3.83;;;3.63;;
450;SDS011;212;48.748;9.174;2022-08-01T09:31:44;3.00;;;2.80;;
450;SDS011;212;48.748;9.174;2022-08-01T09:34:12;4.10;;;3.57;;
450;SDS011;212;48.748;9.174;2022-08-01T09:36:43;4.30;;;4.03;;
450;SDS011;212;48.748;9.174;2022-08-01T09:39:14;3.83;;;3.63;;
450;SDS011;212;48.748;9.174;2022-08-01T09:41:41;5.27;;;4.97;;
450;SDS011;212;48.748;9.174;2022-08-01T09:44:08;5.60;;;4.50;;
450;SDS011;212;48.748;9.174;2022-08-01T09:46:35;5.27;;;4.97;;
450;SDS011;212;48.748;9.174;2022-08-01T09:49:03;5.80;;;5.50;;
450;SDS011;212;48.748;9.174;2022-08-01T09:51:32;6.23;;;5.40;;
450;SDS011;212;48.748;9.174;2022-08-01T09:54:00;6.00;;;5.70;;
450;SDS011;212;48.748;9.174;2022-08-01T09:56:36;6.87;;;6.47;;
450;SDS011;212;48.748;9.174;2022-08-01T09:59:04;7.73;;;7.33;;
450;SDS011;212;48.748;9.174;2022-08-01T10:01:45;8.13;;;7.70;;
450;SDS011;212;48.748;9.174;2022-08-01T10:04:13;8.03;;;6.07;;
450;SDS011;212;48.748;9.174;2022-08-01T10:06:41;5.87;;;5.57;;
450;SDS011;212;48.748;9.174;2022-08-01T10:09:10;5.53;;;5.23;;
450;SDS011;212;48.748;9.174;2022-08-01T10:11:40;5.57;;;5.00;;
450;SDS011;212;48.748;9.174;2022-08-01T10:14:08;4.93;;;4.63;;
450;SDS011;212;48.748;9.174;2022-08-01T10:16:38;5.87;;;5.57;;
450;SDS011;212;48.748;9.174;2022-08-01T10:19:06;5.70;;;5.40;;
450;SDS011;212;48.748;9.174;2022-08-01T10:21:33;6.13;;;5.77;;
450;SDS011;212;48.748;9.174;2022-08-01T10:24:02;4.90;;;4.60;;
450;SDS011;212;48.748;9.174;2022-08-01T10:26:32;5.53;;;5.23;;
450;SDS011;212;48.748;9.174;2022-08-01T10:29:02;5.20;;;4.90;;
450;SDS011;212;48.748;9.174;2022-08-01T10:31:29;5.50;;;5.20;;
450;SDS011;212;48.748;9.174;2022-08-01T10:33:58;4.60;;;4.30;;
450;SDS011;212;48.748;9.174;2022-08-01T10:36:26;4.37;;;4.07;;
450;SDS011;212;48.748;9.174;2022-08-01T10:38:53;4.70;;;4.40;;
450;SDS011;212;48.748;9.174;2022-08-01T10:43:58;3.60;;;3.40;;
450;SDS011;212;48.748;9.174;2022-08-01T10:46:28;4.33;;;4.03;;
450;SDS011;212;48.748;9.174;2022-08-01T10:48:58;4.60;;;4.30;;
450;SDS011;212;48.748;9.174;2022-08-01T10:51:28;4.10;;;3.73;;
450;SDS011;212;48.748;9.174;2022-08-01T10:53:56;4.93;;;4.03;;
450;SDS011;212;48.748;9.174;2022-08-01T10:56:22;4.47;;;4.17;;
450;SDS011;212;48.748;9.174;2022-08-01T10:58:51;3.90;;;3.70;;
450;SDS011;212;48.748;9.174;2022-08-01T11:01:29;3.63;;;3.43;;
450;SDS011;212;48.748;9.174;2022-08-01T11:04:00;3.73;;;3.53;;
450;SDS011;212;48.748;9.174;2022-08-01T11:06:35;3.90;;;3.70;;
450;SDS011;212;48.748;9.174;2022-08-01T11:09:15;4.53;;;4.00;;
450;SDS011;212;48.748;9.174;2022-08-01T11:11:56;4.37;;;4.07;;
450;SDS011;212;48.748;9.174;2022-08-01T11:14:25;4.43;;;4.13;;
450;SDS011;212;48.748;9.174;2022-08-01T11:16:52;4.43;;;4.13;;
450;SDS011;212;48.748;9.174;2022-08-01T11:19:19;4.40;;;4.10;;
450;SDS011;212;48.748;9.174;2022-08-01T11:21:59;3.60;;;3.40;;
450;SDS011;212;48.748;9.174;2022-08-01T11:27:23;3.50;;;3.30;;
450;SDS011;212;48.748;9.174;2022-08-01T11:32:52;3.57;;;3.37;;
450;SDS011;212;48.748;9.174;2022-08-01T11:35:20;4.37;;;4.07;;
450;SDS011;212;48.748;9.174;2022-08-01T11:37:48;7.43;;;3.90;;
450;SDS011;212;48.748;9.174;2022-08-01T11:40:18;3.90;;;3.70;;
450;SDS011;212;48.748;9.174;2022-08-01T11:42:46;5.00;;;4.50;;
450;SDS011;212;48.748;9.174;2022-08-01T11:45:13;3.90;;;3.70;;
450;SDS011;212;48.748;9.174;2022-08-01T11:47:44;3.20;;;3.00;;
450;SDS011;212;48.748;9.174;2022-08-01T11:50:32;3.30;;;2.70;;
450;SDS011;212;48.748;9.174;2022-08-01T11:53:00;4.33;;;4.03;;
450;SDS011;212;48.748;9.174;2022-08-01T11:55:28;3.83;;;3.63;;
450;SDS011;212;48.748;9.174;2022-08-01T11:57:58;4.20;;;2.80;;
450;SDS011;212;48.748;9.174;2022-08-01T12:00:26;2.80;;;2.60;;
450;SDS011;212;48.748;9.174;2022-08-01T12:03:00;3.63;;;3.33;;
450;SDS011;212;48.748;9.174;2022-08-01T12:05:28;3.80;;;3.67;;
450;SDS011;212;48.748;9.174;2022-08-01T12:07:57;4.90;;;3.00;;
450;SDS011;212;48.748;9.174;2022-08-01T12:10:24;3.00;;;2.80;;
450;SDS011;212;48.748;9.174;2022-08-01T12:12:54;2.80;;;2.60;;
450;SDS011;212;48.748;9.174;2022-08-01T12:15:23;3.90;;;3.70;;
450;SDS011;212;48.748;9.174;2022-08-01T12:17:51;3.67;;;2.90;;
450;SDS011;212;48.748;9.174;2022-08-01T12:20:23;2.90;;;2.73;;
450;SDS011;212;48.748;9.174;2022-08-01T12:22:52;3.00;;;2.80;;
450;SDS011;212;48.748;9.174;2022-08-01T12:25:20;2.97;;;2.77;;
450;SDS011;212;48.748;9.174;2022-08-01T12:27:47;3.13;;;2.70;;
450;SDS011;212;48.748;9.174;2022-08-01T12:30:15;3.20;;;3.00;;
450;SDS011;212;48.748;9.174;2022-08-01T12:32:43;3.23;;;2.30;;
450;SDS011;212;48.748;9.174;2022-08-01T12:35:12;3.10;;;2.90;;
450;SDS011;212;48.748;9.174;2022-08-01T12:37:42;3.40;;;3.20;;
450;SDS011;212;48.748;9.174;2022-08-01T12:40:10;5.27;;;3.03;;
450;SDS011;212;48.748;9.174;2022-08-01T12:42:39;3.43;;;2.80;;
450;SDS011;212;48.748;9.174;2022-08-01T12:45:07;3.30;;;3.10;;
450;SDS011;212;48.748;9.174;2022-08-01T12:47:35;3.87;;;3.67;;
450;SDS011;212;48.748;9.174;2022-08-01T12:50:03;3.80;;;3.60;;
450;SDS011;212;48.748;9.174;2022-08-01T12:52:31;3.37;;;3.17;;
450;SDS011;212;48.748;9.174;2022-08-01T12:55:12;3.23;;;3.03;;
450;SDS011;212;48.748;9.174;2022-08-01T12:57:40;3.10;;;2.90;;
450;SDS011;212;48.748;9.174;2022-08-01T13:00:19;3.60;;;3.17;;
450;SDS011;212;48.748;9.174;2022-08-01T13:02:48;2.90;;;2.70;;
450;SDS011;212;48.748;9.174;2022-08-01T13:05:16;3.00;;;2.80;;
450;SDS011;212;48.748;9.174;2022-08-01T13:07:44;3.00;;;2.80;;
450;SDS011;212;48.748;9.174;2022-08-01T13:12:58;2.83;;;2.67;;
450;SDS011;212;48.748;9.174;2022-08-01T13:15:26;2.90;;;2.70;;
450;SDS011;212;48.748;9.174;2022-08-01T13:17:57;2.90;;;2.70;;
450;SDS011;212;48.748;9.174;2022-08-01T13:20:25;3.00;;;2.80;;
450;SDS011;212;48.748;9.174;2022-08-01T13:23:10;3.33;;;2.80;;
450;SDS011;212;48.748;9.174;2022-08-01T13:25:50;2.93;;;2.73;;
450;SDS011;212;48.748;9.174;2022-08-01T13:28:19;3.67;;;3.47;;
450;SDS011;212;48.748;9.174;2022-08-01T13:30:55;2.87;;;2.67;;
450;SDS011;212;48.748;9.174;2022-08-01T13:33:24;3.07;;;2.87;;
450;SDS011;212;48.748;9.174;2022-08-01T13:35:52;3.03;;;2.70;;
450;SDS011;212;48.748;9.174;2022-08-01T13:38:21;3.97;;;2.77;;
450;SDS011;212;48.748;9.174;2022-08-01T13:41:10;3.30;;;2.83;;
450;SDS011;212;48.748;9.174;2022-08-01T13:43:36;3.23;;;2.60;;
450;SDS011;212;48.748;9.174;2022-08-01T13:46:03;2.97;;;2.80;;
450;SDS011;212;48.748;9.174;2022-08-01T13:48:31;5.03;;;2.47;;
450;SDS011;212;48.748;9.174;2022-08-01T13:50:58;3.23;;;2.47;;
450;SDS011;212;48.748;9.174;2022-08-01T13:53:25;2.80;;;2.60;;
450;SDS011;212;48.748;9.174;2022-08-01T13:55:52;3.10;;;2.20;;
450;SDS011;212;48.748;9.174;2022-08-01T13:58:20;2.77;;;2.50;;
450;SDS011;212;48.748;9.174;2022-08-01T14:00:47;2.50;;;2.30;;
450;SDS011;212;48.748;9.174;2022-08-01T14:03:13;2.87;;;2.67;;
450;SDS011;212;48.748;9.174;2022-08-01T14:05:41;2.23;;;1.90;;
450;SDS011;212;48.748;9.174;2022-08-01T14:08:08;3.13;;;2.30;;
450;SDS011;212;48.748;9.174;2022-08-01T14:10:35;4.40;;;2.17;;
450;SDS011;212;48.748;9.174;2022-08-01T14:13:02;3.10;;;2.43;;
450;SDS011;212;48.748;9.174;2022-08-01T14:15:31;2.77;;;2.60;;
450;SDS011;212;48.748;9.174;2022-08-01T14:17:58;2.33;;;2.13;;
450;SDS011;212;48.748;9.174;2022-08-01T14:20:25;5.13;;;2.30;;
450;SDS011;212;48.748;9.174;2022-08-01T14:22:51;4.60;;;3.17;;
450;SDS011;212;48.748;9.174;2022-08-01T14:25:18;4.33;;;3.00;;
450;SDS011;212;48.748;9.174;2022-08-01T14:27:45;2.87;;;2.67;;
450;SDS011;212;48.748;9.174;2022-08-01T14:30:13;3.20;;;3.00;;
450;SDS011;212;48.748;9.174;2022-08-01T14:32:41;3.97;;;2.60;;
450;SDS011;212;48.748;9.174;2022-08-01T14:35:08;2.73;;;2.30;;
450;SDS011;212;48.748;9.174;2022-08-01T14:37:35;4.20;;;2.70;;
450;SDS011;212;48.748;9.174;2022-08-01T14:40:01;4.20;;;3.10;;
450;SDS011;212;48.748;9.174;2022-08-01T14:42:32;3.40;;;3.00;;
450;SDS011;212;48.748;9.174;2022-08-01T14:44:59;7.33;;;2.37;;
450;SDS011;212;48.748;9.174;2022-08-01T14:47:26;2.80;;;2.60;;
450;SDS011;212;48.748;9.174;2022-08-01T14:49:54;3.43;;;2.70;;
450;SDS011;212;48.748;9.174;2022-08-01T14:52:21;2.43;;;2.10;;
450;SDS011;212;48.748;9.174;2022-08-01T14:54:47;3.33;;;2.90;;
450;SDS011;212;48.748;9.174;2022-08-01T14:57:14;2.80;;;2.60;;
450;SDS011;212;48.748;9.174;2022-08-01T14:59:43;2.60;;;2.40;;
450;SDS011;212;48.748;9.174;2022-08-01T15:02:09;2.90;;;2.40;;
450;SDS011;212;48.748;9.174;2022-08-01T15:04:37;2.57;;;2.37;;
450;SDS011;212;48.748;9.174;2022-08-01T15:07:05;5.50;;;2.83;;
450;SDS011;212;48.748;9.174;2022-08-01T15:09:32;4.73;;;3.00;;
450;SDS011;212;48.748;9.174;2022-08-01T15:11:59;2.53;;;1.93;;
450;SDS011;212;48.748;9.174;2022-08-01T15:14:25;2.43;;;2.23;;
450;SDS011;212;48.748;9.174;2022-08-01T15:17:09;3.33;;;3.07;;
450;SDS011;212;48.748;9.174;2022-08-01T15:19:36;2.87;;;2.67;;
450;SDS011;212;48.748;9.174;2022-08-01T15:22:03;2.33;;;2.17;;
450;SDS011;212;48.748;9.174;2022-08-01T15:24:31;2.80;;;2.60;;
450;SDS011;212;48.748;9.174;2022-08-01T15:26:58;2.50;;;2.30;;
450;SDS011;212;48.748;9.174;2022-08-01T15:29:24;2.30;;;2.10;;
450;SDS011;212;48.748;9.174;2022-08-01T15:31:51;2.57;;;2.40;;
450;SDS011;212;48.748;9.174;2022-08-01T15:34:18;2.50;;;2.30;;
450;SDS011;212;48.748;9.174;2022-08-01T15:36:45;3.97;;;2.43;;
450;SDS011;212;48.748;9.174;2022-08-01T15:39:11;2.20;;;1.93;;
450;SDS011;212;48.748;9.174;2022-08-01T15:41:41;2.60;;;2.47;;
450;SDS011;212;48.748;9.174;2022-08-01T15:44:08;1.70;;;1.60;;
450;SDS011;212;48.748;9.174;2022-08-01T15:46:34;2.70;;;2.30;;
450;SDS011;212;48.748;9.174;2022-08-01T15:49:01;2.07;;;1.80;;
450;SDS011;212;48.748;9.174;2022-08-01T15:51:29;2.73;;;2.53;;
450;SDS011;212;48.748;9.174;2022-08-01T15:53:56;2.90;;;2.70;;
450;SDS011;212;48.748;9.174;2022-08-01T15:56:23;4.43;;;2.00;;
450;SDS011;212;48.748;9.174;2022-08-01T15:58:51;2.73;;;2.53;;
450;SDS011;212;48.748;9.174;2022-08-01T16:01:18;3.97;;;2.53;;
450;SDS011;212;48.748;9.174;2022-08-01T16:03:45;3.37;;;2.70;;
450;SDS011;212;48.748;9.174;2022-08-01T16:06:12;1.80;;;1.80;;